createdAt,value
2022-10-12T00:00:28.771Z,17.50
2022-10-12T00:03:17.156Z,17.17
2022-10-12T00:06:08.940Z,16.77
2022-10-12T00:08:56.974Z,15.15
2022-10-12T00:11:44.830Z,14.75
2022-10-12T00:14:37.087Z,16.65
2022-10-12T00:17:24.931Z,14.80
2022-10-12T00:20:12.840Z,16.33
2022-10-12T00:23:00.795Z,13.70
2022-10-12T00:25:48.663Z,13.40
2022-10-12T00:28:36.885Z,21.50
2022-10-12T00:31:25.208Z,21.48
2022-10-12T00:34:12.797Z,22.80
2022-10-12T00:37:00.634Z,20.40
2022-10-12T00:39:48.760Z,20.13
2022-10-12T00:42:36.563Z,17.45
2022-10-12T00:45:26.175Z,18.65
2022-10-12T00:48:14.254Z,17.05
2022-10-12T00:51:02.908Z,16.48
2022-10-12T00:53:57.517Z,14.02
2022-10-12T00:56:48.762Z,14.13
2022-10-12T01:00:06.184Z,16.92
2022-10-12T01:02:55.037Z,14.77
2022-10-12T01:05:43.833Z,16.45
2022-10-12T01:08:31.797Z,17.15
2022-10-12T01:11:19.621Z,16.65
2022-10-12T01:14:08.369Z,15.05
2022-10-12T01:17:09.553Z,14.63
2022-10-12T01:20:22.580Z,16.50
2022-10-12T01:23:28.912Z,15.15
2022-10-12T01:26:19.671Z,14.52
2022-10-12T01:29:43.118Z,14.55
2022-10-12T01:32:45.939Z,16.00
2022-10-12T01:35:43.717Z,13.25
2022-10-12T01:38:54.426Z,11.60
2022-10-12T01:41:48.823Z,12.98
2022-10-12T01:44:41.927Z,15.38
2022-10-12T01:47:31.746Z,17.08
2022-10-12T01:50:22.126Z,18.95
2022-10-12T01:53:09.706Z,17.42
2022-10-12T01:56:22.830Z,17.73
2022-10-12T01:59:28.061Z,17.88
2022-10-12T02:02:28.318Z,18.00
2022-10-12T02:05:23.736Z,18.65
2022-10-12T02:08:33.732Z,15.55
2022-10-12T02:11:24.266Z,19.48
2022-10-12T02:14:21.679Z,16.58
2022-10-12T02:17:13.429Z,14.77
2022-10-12T02:20:02.645Z,16.55
2022-10-12T02:22:52.083Z,18.60
2022-10-12T02:25:41.196Z,14.98
2022-10-12T02:28:32.587Z,11.77
2022-10-12T02:31:52.686Z,14.68
2022-10-12T02:34:55.567Z,14.43
2022-10-12T02:37:48.756Z,12.60
2022-10-12T02:40:54.403Z,12.63
2022-10-12T02:43:56.058Z,12.35
2022-10-12T02:46:46.445Z,13.32
2022-10-12T02:49:36.384Z,13.55
2022-10-12T02:52:25.116Z,12.55
2022-10-12T02:55:13.042Z,13.55
2022-10-12T02:58:00.704Z,11.23
2022-10-12T03:00:48.779Z,12.43
2022-10-12T03:03:36.664Z,11.60
2022-10-12T03:06:24.493Z,12.35
2022-10-12T03:09:12.302Z,12.57
2022-10-12T03:12:00.303Z,10.23
2022-10-12T03:14:48.134Z,9.20
2022-10-12T03:17:36.171Z,9.65
2022-10-12T03:20:24.092Z,8.60
2022-10-12T03:23:11.779Z,8.38
2022-10-12T03:25:59.779Z,8.50
2022-10-12T03:28:47.580Z,8.18
2022-10-12T03:31:35.169Z,7.15
2022-10-12T03:34:23.107Z,6.50
2022-10-12T03:37:11.237Z,6.65
2022-10-12T03:39:58.883Z,6.40
2022-10-12T03:42:46.900Z,6.43
2022-10-12T03:45:35.091Z,6.88
2022-10-12T03:48:23.134Z,6.03
2022-10-12T03:51:10.992Z,6.35
2022-10-12T03:53:58.562Z,6.32
2022-10-12T03:56:46.129Z,7.07
2022-10-12T03:59:34.040Z,6.15
2022-10-12T04:02:22.257Z,7.47
2022-10-12T04:05:10.171Z,7.38
2022-10-12T04:07:58.497Z,5.88
2022-10-12T04:10:46.461Z,6.78
2022-10-12T04:13:34.337Z,7.03
2022-10-12T04:16:24.095Z,5.93
2022-10-12T04:19:14.743Z,6.22
2022-10-12T04:22:02.310Z,6.65
2022-10-12T04:24:50.700Z,7.20
2022-10-12T04:27:38.495Z,7.00
2022-10-12T04:30:26.749Z,8.18
2022-10-12T04:33:14.942Z,6.43
2022-10-12T04:36:02.776Z,6.03
2022-10-12T04:38:51.027Z,7.38
2022-10-12T04:41:40.419Z,9.38
2022-10-12T04:44:32.136Z,9.23
2022-10-12T04:47:20.527Z,9.25
2022-10-12T04:50:08.893Z,8.65
2022-10-12T04:52:56.741Z,8.77
2022-10-12T04:55:44.445Z,8.10
2022-10-12T04:58:33.205Z,7.55
2022-10-12T05:01:21.359Z,8.45
2022-10-12T05:04:08.922Z,8.52
2022-10-12T05:06:57.025Z,8.95
2022-10-12T05:09:44.643Z,10.43
2022-10-12T05:12:32.227Z,10.20
2022-10-12T05:15:20.761Z,9.15
2022-10-12T05:18:08.750Z,9.02
2022-10-12T05:20:57.304Z,7.63
2022-10-12T05:23:45.286Z,7.13
2022-10-12T05:26:33.463Z,10.13
2022-10-12T05:29:21.115Z,10.80
2022-10-12T05:32:08.906Z,12.15
2022-10-12T05:34:57.044Z,11.57
2022-10-12T05:37:44.793Z,11.20
2022-10-12T05:40:32.767Z,11.63
2022-10-12T05:43:20.835Z,11.40
2022-10-12T05:46:13.557Z,12.90
2022-10-12T05:49:02.710Z,11.60
2022-10-12T05:51:50.397Z,11.20
2022-10-12T05:54:39.048Z,9.05
2022-10-12T05:57:26.641Z,10.60
2022-10-12T06:00:14.792Z,7.82
2022-10-12T06:03:03.020Z,7.97
2022-10-12T06:05:51.102Z,8.35
2022-10-12T06:08:39.239Z,8.65
2022-10-12T06:11:28.601Z,8.15
2022-10-12T06:14:18.185Z,9.35
2022-10-12T06:17:05.876Z,8.05
2022-10-12T06:19:54.014Z,7.95
2022-10-12T06:22:41.776Z,9.10
2022-10-12T06:25:29.683Z,7.45
2022-10-12T06:28:20.450Z,8.18
2022-10-12T06:31:08.098Z,9.05
2022-10-12T06:33:55.986Z,7.03
2022-10-12T06:36:44.023Z,8.65
2022-10-12T06:39:32.378Z,7.28
2022-10-12T06:42:19.967Z,6.90
2022-10-12T06:45:11.256Z,6.28
2022-10-12T06:47:58.882Z,6.28
2022-10-12T06:50:47.230Z,6.47
2022-10-12T06:53:35.219Z,7.40
2022-10-12T06:56:23.386Z,5.82
2022-10-12T06:59:14.142Z,5.82
2022-10-12T07:02:01.944Z,5.75
2022-10-12T07:04:53.830Z,5.13
2022-10-12T07:07:41.676Z,4.78
2022-10-12T07:10:29.832Z,4.43
2022-10-12T07:13:17.671Z,5.55
2022-10-12T07:16:05.524Z,5.15
2022-10-12T07:18:53.888Z,5.60
2022-10-12T07:21:41.502Z,5.57
2022-10-12T07:24:36.552Z,5.65
2022-10-12T07:27:24.155Z,5.20
2022-10-12T07:30:13.112Z,6.13
2022-10-12T07:33:00.946Z,5.68
2022-10-12T07:36:13.381Z,5.88
2022-10-12T07:39:02.506Z,5.57
2022-10-12T07:41:51.452Z,6.25
2022-10-12T07:44:39.388Z,4.65
2022-10-12T07:47:27.270Z,4.68
2022-10-12T07:50:16.002Z,3.88
2022-10-12T07:53:03.835Z,3.33
2022-10-12T07:55:52.249Z,3.65
2022-10-12T07:58:40.150Z,3.00
2022-10-12T08:01:30.269Z,2.97
2022-10-12T08:04:18.208Z,2.70
2022-10-12T08:07:06.053Z,2.78
2022-10-12T08:09:54.079Z,2.85
2022-10-12T08:12:41.954Z,3.05
2022-10-12T08:15:29.952Z,3.03
2022-10-12T08:18:17.786Z,3.30
2022-10-12T08:21:07.596Z,3.05
2022-10-12T08:23:55.511Z,3.10
2022-10-12T08:26:43.645Z,3.28
2022-10-12T08:29:31.462Z,2.60
2022-10-12T08:32:19.605Z,3.30
2022-10-12T08:35:07.472Z,2.88
2022-10-12T08:37:55.084Z,3.00
2022-10-12T08:40:54.945Z,3.10
2022-10-12T08:44:05.001Z,3.60
2022-10-12T08:47:18.132Z,2.85
2022-10-12T08:50:10.632Z,2.95
2022-10-12T08:53:16.013Z,4.45
2022-10-12T08:56:03.905Z,3.58
2022-10-12T08:58:53.163Z,4.38
2022-10-12T09:02:02.029Z,3.70
2022-10-12T09:04:49.874Z,3.70
2022-10-12T09:07:44.314Z,4.15
2022-10-12T09:10:47.318Z,3.47
2022-10-12T09:13:52.063Z,2.70
2022-10-12T09:16:44.783Z,2.85
2022-10-12T09:19:41.387Z,3.20
2022-10-12T09:22:31.082Z,3.85
2022-10-12T09:25:27.042Z,3.38
2022-10-12T09:28:41.272Z,3.10
2022-10-12T09:31:41.345Z,3.47
2022-10-12T09:34:29.250Z,3.38
2022-10-12T09:37:28.312Z,3.58
2022-10-12T09:40:26.467Z,2.90
2022-10-12T09:43:14.770Z,3.42
2022-10-12T09:46:06.835Z,4.07
2022-10-12T09:48:59.593Z,3.55
2022-10-12T09:51:47.328Z,3.22
2022-10-12T09:54:35.688Z,3.05
2022-10-12T09:57:31.362Z,3.83
2022-10-12T10:00:31.483Z,3.95
2022-10-12T10:03:30.606Z,3.88
2022-10-12T10:06:26.233Z,3.35
2022-10-12T10:09:32.011Z,3.30
2022-10-12T10:12:29.485Z,3.10
2022-10-12T10:15:38.875Z,3.03
2022-10-12T10:18:38.726Z,2.38
2022-10-12T10:21:29.353Z,3.40
2022-10-12T10:24:28.611Z,3.35
2022-10-12T10:27:40.269Z,3.53
2022-10-12T10:30:39.628Z,3.38
2022-10-12T10:33:34.309Z,3.38
2022-10-12T10:36:25.140Z,3.60
2022-10-12T10:39:29.235Z,3.53
2022-10-12T10:42:24.897Z,3.50
2022-10-12T10:45:23.679Z,3.57
2022-10-12T10:48:18.218Z,3.97
2022-10-12T10:51:07.551Z,3.60
2022-10-12T10:53:56.622Z,4.32
2022-10-12T10:56:47.077Z,4.03
2022-10-12T11:00:26.055Z,3.65
2022-10-12T11:06:11.757Z,4.53
2022-10-12T11:09:06.916Z,3.28
2022-10-12T11:12:00.708Z,3.40
2022-10-12T11:14:52.251Z,3.80
2022-10-12T11:17:47.250Z,4.38
2022-10-12T11:20:45.521Z,5.15
2022-10-12T11:23:39.330Z,2.97
2022-10-12T11:26:35.608Z,3.67
2022-10-12T11:29:23.898Z,4.43
2022-10-12T11:32:23.327Z,3.97
2022-10-12T11:35:41.194Z,3.88
2022-10-12T11:38:45.020Z,4.47
2022-10-12T11:42:03.273Z,4.35
2022-10-12T11:44:55.092Z,4.10
2022-10-12T11:47:47.228Z,3.80
2022-10-12T11:50:37.421Z,4.10
2022-10-12T11:53:28.507Z,3.90
2022-10-12T11:56:26.135Z,3.80
2022-10-12T11:59:24.632Z,4.68
2022-10-12T12:02:34.567Z,3.53
2022-10-12T12:05:26.192Z,3.58
2022-10-12T12:08:55.378Z,4.38
2022-10-12T12:11:43.461Z,2.70
2022-10-12T12:14:31.422Z,3.72
2022-10-12T12:17:19.318Z,3.50
2022-10-12T12:20:44.852Z,4.03
2022-10-12T12:23:42.699Z,4.28
2022-10-12T12:26:31.076Z,4.35
2022-10-12T12:29:29.833Z,4.03
2022-10-12T12:32:20.092Z,4.20
2022-10-12T12:35:30.012Z,4.13
2022-10-12T12:38:24.144Z,4.13
2022-10-12T12:41:20.216Z,4.18
2022-10-12T12:44:33.751Z,4.18
2022-10-12T12:47:45.471Z,3.83
2022-10-12T12:50:39.820Z,4.03
2022-10-12T12:53:31.011Z,4.07
2022-10-12T12:56:48.219Z,4.30
2022-10-12T13:00:04.486Z,3.55
2022-10-12T13:03:19.885Z,2.58
2022-10-12T13:06:28.934Z,3.60
2022-10-12T13:09:16.822Z,3.78
2022-10-12T13:12:23.090Z,3.70
2022-10-12T13:15:21.189Z,4.22
2022-10-12T13:18:45.966Z,3.13
2022-10-12T13:21:47.357Z,2.92
2022-10-12T22:51:41.832Z,3.22
2022-10-12T23:31:05.983Z,3.05
